sensor_id;sensor_type;location;lat;lon;timestamp;P1;durP1;ratioP1;P2;durP2;ratioP2
17390;SDS011;8813;54.444;18.446;2023-09-19T00:00:07;1.60;;;1.60;;
17390;SDS011;8813;54.444;18.446;2023-09-19T00:02:38;1.42;;;1.25;;
17390;SDS011;8813;54.444;18.446;2023-09-19T00:05:05;1.00;;;1.00;;
17390;SDS011;8813;54.444;18.446;2023-09-19T00:07:34;0.77;;;0.77;;
17390;SDS011;8813;54.444;18.446;2023-09-19T00:10:02;1.52;;;1.50;;
17390;SDS011;8813;54.444;18.446;2023-09-19T00:12:30;2.85;;;2.65;;
17390;SDS011;8813;54.444;18.446;2023-09-19T00:14:58;0.60;;;0.60;;
17390;SDS011;8813;54.444;18.446;2023-09-19T00:17:27;2.15;;;1.95;;
17390;SDS011;8813;54.444;18.446;2023-09-19T00:19:56;14.80;;;2.15;;
17390;SDS011;8813;54.444;18.446;2023-09-19T00:22:23;0.60;;;0.60;;
17390;SDS011;8813;54.444;18.446;2023-09-19T00:24:51;1.00;;;1.00;;
17390;SDS011;8813;54.444;18.446;2023-09-19T00:27:19;0.93;;;0.93;;
17390;SDS011;8813;54.444;18.446;2023-09-19T00:29:46;0.82;;;0.82;;
17390;SDS011;8813;54.444;18.446;2023-09-19T00:32:13;4.13;;;3.38;;
17390;SDS011;8813;54.444;18.446;2023-09-19T00:34:41;1.55;;;1.55;;
17390;SDS011;8813;54.444;18.446;2023-09-19T00:37:08;0.50;;;0.50;;
17390;SDS011;8813;54.444;18.446;2023-09-19T00:39:36;0.50;;;0.50;;
17390;SDS011;8813;54.444;18.446;2023-09-19T00:42:03;1.75;;;1.65;;
17390;SDS011;8813;54.444;18.446;2023-09-19T00:44:31;0.50;;;0.50;;
17390;SDS011;8813;54.444;18.446;2023-09-19T00:46:59;0.73;;;0.73;;
17390;SDS011;8813;54.444;18.446;2023-09-19T00:49:27;0.55;;;0.55;;
17390;SDS011;8813;54.444;18.446;2023-09-19T00:51:57;2.15;;;1.92;;
17390;SDS011;8813;54.444;18.446;2023-09-19T00:54:25;2.70;;;2.58;;
17390;SDS011;8813;54.444;18.446;2023-09-19T00:56:53;1.45;;;1.45;;
17390;SDS011;8813;54.444;18.446;2023-09-19T00:59:20;1.88;;;1.88;;
17390;SDS011;8813;54.444;18.446;2023-09-19T01:01:47;7.95;;;7.40;;
17390;SDS011;8813;54.444;18.446;2023-09-19T01:04:18;1.05;;;1.05;;
17390;SDS011;8813;54.444;18.446;2023-09-19T01:06:45;0.82;;;0.82;;
17390;SDS011;8813;54.444;18.446;2023-09-19T01:09:19;1.33;;;1.33;;
17390;SDS011;8813;54.444;18.446;2023-09-19T01:11:47;0.70;;;0.70;;
17390;SDS011;8813;54.444;18.446;2023-09-19T01:14:20;1.00;;;1.00;;
17390;SDS011;8813;54.444;18.446;2023-09-19T01:16:56;6.75;;;4.97;;
17390;SDS011;8813;54.444;18.446;2023-09-19T01:19:44;0.68;;;0.68;;
17390;SDS011;8813;54.444;18.446;2023-09-19T01:22:53;1.17;;;1.17;;
17390;SDS011;8813;54.444;18.446;2023-09-19T01:25:42;0.70;;;0.70;;
17390;SDS011;8813;54.444;18.446;2023-09-19T01:28:34;0.88;;;0.88;;
17390;SDS011;8813;54.444;18.446;2023-09-19T01:31:22;1.08;;;1.08;;
17390;SDS011;8813;54.444;18.446;2023-09-19T01:33:53;7.38;;;6.82;;
17390;SDS011;8813;54.444;18.446;2023-09-19T01:36:25;1.25;;;1.25;;
17390;SDS011;8813;54.444;18.446;2023-09-19T01:38:54;0.95;;;0.95;;
17390;SDS011;8813;54.444;18.446;2023-09-19T01:41:24;1.08;;;1.08;;
17390;SDS011;8813;54.444;18.446;2023-09-19T01:43:53;0.75;;;0.75;;
17390;SDS011;8813;54.444;18.446;2023-09-19T01:46:24;0.70;;;0.70;;
17390;SDS011;8813;54.444;18.446;2023-09-19T01:48:54;0.80;;;0.80;;
17390;SDS011;8813;54.444;18.446;2023-09-19T01:51:26;1.23;;;1.10;;
17390;SDS011;8813;54.444;18.446;2023-09-19T01:54:00;1.25;;;1.25;;
17390;SDS011;8813;54.444;18.446;2023-09-19T01:56:29;2.40;;;2.30;;
17390;SDS011;8813;54.444;18.446;2023-09-19T01:59:01;2.55;;;1.35;;
17390;SDS011;8813;54.444;18.446;2023-09-19T02:01:32;1.00;;;1.00;;
17390;SDS011;8813;54.444;18.446;2023-09-19T02:04:00;1.17;;;1.17;;
17390;SDS011;8813;54.444;18.446;2023-09-19T02:06:27;1.83;;;1.73;;
17390;SDS011;8813;54.444;18.446;2023-09-19T02:08:55;1.35;;;1.13;;
17390;SDS011;8813;54.444;18.446;2023-09-19T02:11:22;1.40;;;1.30;;
17390;SDS011;8813;54.444;18.446;2023-09-19T02:13:49;0.70;;;0.70;;
17390;SDS011;8813;54.444;18.446;2023-09-19T02:16:19;1.67;;;1.67;;
17390;SDS011;8813;54.444;18.446;2023-09-19T02:18:48;1.48;;;1.48;;
17390;SDS011;8813;54.444;18.446;2023-09-19T02:21:16;1.65;;;1.55;;
17390;SDS011;8813;54.444;18.446;2023-09-19T02:23:43;2.33;;;2.22;;
17390;SDS011;8813;54.444;18.446;2023-09-19T02:26:12;1.20;;;1.20;;
17390;SDS011;8813;54.444;18.446;2023-09-19T02:28:39;0.90;;;0.90;;
17390;SDS011;8813;54.444;18.446;2023-09-19T02:31:06;0.60;;;0.60;;
17390;SDS011;8813;54.444;18.446;2023-09-19T02:33:33;0.70;;;0.70;;
17390;SDS011;8813;54.444;18.446;2023-09-19T02:36:03;0.93;;;0.93;;
17390;SDS011;8813;54.444;18.446;2023-09-19T02:38:31;1.45;;;1.35;;
17390;SDS011;8813;54.444;18.446;2023-09-19T02:40:57;0.65;;;0.65;;
17390;SDS011;8813;54.444;18.446;2023-09-19T02:43:24;1.70;;;1.05;;
17390;SDS011;8813;54.444;18.446;2023-09-19T02:45:51;0.93;;;0.93;;
17390;SDS011;8813;54.444;18.446;2023-09-19T02:48:19;0.95;;;0.95;;
17390;SDS011;8813;54.444;18.446;2023-09-19T02:50:49;0.70;;;0.70;;
17390;SDS011;8813;54.444;18.446;2023-09-19T02:53:17;1.20;;;1.20;;
17390;SDS011;8813;54.444;18.446;2023-09-19T02:55:44;0.80;;;0.80;;
17390;SDS011;8813;54.444;18.446;2023-09-19T02:58:14;1.10;;;1.10;;
17390;SDS011;8813;54.444;18.446;2023-09-19T03:00:44;1.10;;;0.75;;
17390;SDS011;8813;54.444;18.446;2023-09-19T03:03:12;0.80;;;0.80;;
17390;SDS011;8813;54.444;18.446;2023-09-19T03:05:40;0.90;;;0.90;;
17390;SDS011;8813;54.444;18.446;2023-09-19T03:08:12;0.82;;;0.82;;
17390;SDS011;8813;54.444;18.446;2023-09-19T03:10:41;0.80;;;0.80;;
17390;SDS011;8813;54.444;18.446;2023-09-19T03:13:08;0.80;;;0.80;;
17390;SDS011;8813;54.444;18.446;2023-09-19T03:15:36;0.80;;;0.80;;
17390;SDS011;8813;54.444;18.446;2023-09-19T03:18:04;1.00;;;1.00;;
17390;SDS011;8813;54.444;18.446;2023-09-19T03:20:31;2.00;;;1.92;;
17390;SDS011;8813;54.444;18.446;2023-09-19T03:22:58;0.88;;;0.88;;
17390;SDS011;8813;54.444;18.446;2023-09-19T03:25:25;1.17;;;1.17;;
17390;SDS011;8813;54.444;18.446;2023-09-19T03:27:54;1.23;;;1.23;;
17390;SDS011;8813;54.444;18.446;2023-09-19T03:30:23;1.10;;;1.00;;
17390;SDS011;8813;54.444;18.446;2023-09-19T03:32:50;1.30;;;1.30;;
17390;SDS011;8813;54.444;18.446;2023-09-19T03:35:17;1.20;;;1.20;;
17390;SDS011;8813;54.444;18.446;2023-09-19T03:37:44;1.17;;;1.17;;
17390;SDS011;8813;54.444;18.446;2023-09-19T03:40:11;1.02;;;1.02;;
17390;SDS011;8813;54.444;18.446;2023-09-19T03:42:39;0.90;;;0.90;;
17390;SDS011;8813;54.444;18.446;2023-09-19T03:45:08;1.20;;;1.20;;
17390;SDS011;8813;54.444;18.446;2023-09-19T03:47:37;0.90;;;0.90;;
17390;SDS011;8813;54.444;18.446;2023-09-19T03:50:05;1.00;;;1.00;;
17390;SDS011;8813;54.444;18.446;2023-09-19T03:52:32;0.90;;;0.90;;
17390;SDS011;8813;54.444;18.446;2023-09-19T03:54:59;0.85;;;0.85;;
17390;SDS011;8813;54.444;18.446;2023-09-19T03:57:27;1.10;;;1.10;;
17390;SDS011;8813;54.444;18.446;2023-09-19T03:59:54;1.33;;;1.33;;
17390;SDS011;8813;54.444;18.446;2023-09-19T04:02:23;0.80;;;0.80;;
17390;SDS011;8813;54.444;18.446;2023-09-19T04:04:50;0.95;;;0.95;;
17390;SDS011;8813;54.444;18.446;2023-09-19T04:07:17;0.90;;;0.90;;
17390;SDS011;8813;54.444;18.446;2023-09-19T04:09:47;1.23;;;1.23;;
17390;SDS011;8813;54.444;18.446;2023-09-19T04:12:14;1.20;;;1.20;;
17390;SDS011;8813;54.444;18.446;2023-09-19T04:14:43;1.27;;;1.27;;
17390;SDS011;8813;54.444;18.446;2023-09-19T04:17:10;1.65;;;1.65;;
17390;SDS011;8813;54.444;18.446;2023-09-19T04:19:39;1.00;;;1.00;;
17390;SDS011;8813;54.444;18.446;2023-09-19T04:22:06;1.00;;;1.00;;
17390;SDS011;8813;54.444;18.446;2023-09-19T04:24:34;1.00;;;1.00;;
17390;SDS011;8813;54.444;18.446;2023-09-19T04:27:01;1.00;;;1.00;;
17390;SDS011;8813;54.444;18.446;2023-09-19T04:29:28;1.00;;;1.00;;
17390;SDS011;8813;54.444;18.446;2023-09-19T04:31:55;1.00;;;1.00;;
17390;SDS011;8813;54.444;18.446;2023-09-19T04:34:23;1.17;;;1.17;;
17390;SDS011;8813;54.444;18.446;2023-09-19T04:36:51;1.13;;;1.13;;
17390;SDS011;8813;54.444;18.446;2023-09-19T04:39:19;1.10;;;1.10;;
17390;SDS011;8813;54.444;18.446;2023-09-19T04:41:46;1.20;;;1.20;;
17390;SDS011;8813;54.444;18.446;2023-09-19T04:44:13;1.10;;;1.10;;
17390;SDS011;8813;54.444;18.446;2023-09-19T04:46:41;1.10;;;1.10;;
17390;SDS011;8813;54.444;18.446;2023-09-19T04:49:08;1.85;;;1.75;;
17390;SDS011;8813;54.444;18.446;2023-09-19T04:51:34;0.90;;;0.90;;
17390;SDS011;8813;54.444;18.446;2023-09-19T04:54:03;1.05;;;1.05;;
17390;SDS011;8813;54.444;18.446;2023-09-19T04:56:30;0.90;;;0.90;;
17390;SDS011;8813;54.444;18.446;2023-09-19T04:58:58;1.10;;;1.10;;
17390;SDS011;8813;54.444;18.446;2023-09-19T05:01:25;1.20;;;1.20;;
17390;SDS011;8813;54.444;18.446;2023-09-19T05:03:52;1.08;;;1.08;;
17390;SDS011;8813;54.444;18.446;2023-09-19T05:06:19;1.20;;;1.20;;
17390;SDS011;8813;54.444;18.446;2023-09-19T05:08:47;1.15;;;1.15;;
17390;SDS011;8813;54.444;18.446;2023-09-19T05:11:17;2.20;;;2.20;;
17390;SDS011;8813;54.444;18.446;2023-09-19T05:13:44;7.25;;;7.05;;
17390;SDS011;8813;54.444;18.446;2023-09-19T05:16:11;11.45;;;11.15;;
17390;SDS011;8813;54.444;18.446;2023-09-19T05:18:38;12.00;;;11.65;;
17390;SDS011;8813;54.444;18.446;2023-09-19T05:21:05;11.30;;;11.00;;
17390;SDS011;8813;54.444;18.446;2023-09-19T05:23:35;11.45;;;11.15;;
17390;SDS011;8813;54.444;18.446;2023-09-19T05:26:02;12.30;;;12.00;;
17390;SDS011;8813;54.444;18.446;2023-09-19T05:28:32;11.75;;;11.45;;
17390;SDS011;8813;54.444;18.446;2023-09-19T05:31:00;12.30;;;12.00;;
17390;SDS011;8813;54.444;18.446;2023-09-19T05:33:28;12.27;;;11.80;;
17390;SDS011;8813;54.444;18.446;2023-09-19T05:35:57;11.80;;;11.50;;
17390;SDS011;8813;54.444;18.446;2023-09-19T05:38:31;11.63;;;11.32;;
17390;SDS011;8813;54.444;18.446;2023-09-19T05:40:58;11.27;;;10.98;;
17390;SDS011;8813;54.444;18.446;2023-09-19T05:43:26;15.32;;;14.40;;
17390;SDS011;8813;54.444;18.446;2023-09-19T05:45:54;10.80;;;10.50;;
17390;SDS011;8813;54.444;18.446;2023-09-19T05:48:21;10.73;;;10.43;;
17390;SDS011;8813;54.444;18.446;2023-09-19T05:50:48;10.10;;;9.80;;
17390;SDS011;8813;54.444;18.446;2023-09-19T05:53:16;9.70;;;9.45;;
17390;SDS011;8813;54.444;18.446;2023-09-19T05:55:43;8.32;;;8.13;;
17390;SDS011;8813;54.444;18.446;2023-09-19T05:58:10;41.13;;;22.17;;
17390;SDS011;8813;54.444;18.446;2023-09-19T06:00:39;8.77;;;8.52;;
17390;SDS011;8813;54.444;18.446;2023-09-19T06:03:08;8.60;;;8.40;;
17390;SDS011;8813;54.444;18.446;2023-09-19T06:05:35;8.20;;;7.97;;
17390;SDS011;8813;54.444;18.446;2023-09-19T06:08:06;7.80;;;7.50;;
17390;SDS011;8813;54.444;18.446;2023-09-19T06:10:34;5.80;;;5.70;;
17390;SDS011;8813;54.444;18.446;2023-09-19T06:13:01;5.43;;;5.32;;
17390;SDS011;8813;54.444;18.446;2023-09-19T06:15:30;5.00;;;4.90;;
17390;SDS011;8813;54.444;18.446;2023-09-19T06:17:58;4.88;;;4.78;;
17390;SDS011;8813;54.444;18.446;2023-09-19T06:20:29;4.85;;;4.60;;
17390;SDS011;8813;54.444;18.446;2023-09-19T06:22:58;3.95;;;3.85;;
17390;SDS011;8813;54.444;18.446;2023-09-19T06:25:27;4.50;;;4.40;;
17390;SDS011;8813;54.444;18.446;2023-09-19T06:27:54;3.90;;;3.80;;
17390;SDS011;8813;54.444;18.446;2023-09-19T06:30:22;4.57;;;4.30;;
17390;SDS011;8813;54.444;18.446;2023-09-19T06:32:55;3.70;;;3.60;;
17390;SDS011;8813;54.444;18.446;2023-09-19T06:35:22;4.28;;;4.18;;
17390;SDS011;8813;54.444;18.446;2023-09-19T06:37:52;3.55;;;3.45;;
17390;SDS011;8813;54.444;18.446;2023-09-19T06:40:19;3.85;;;3.75;;
17390;SDS011;8813;54.444;18.446;2023-09-19T06:42:49;5.05;;;4.85;;
17390;SDS011;8813;54.444;18.446;2023-09-19T06:45:18;15.70;;;4.05;;
17390;SDS011;8813;54.444;18.446;2023-09-19T06:47:45;4.00;;;3.90;;
17390;SDS011;8813;54.444;18.446;2023-09-19T06:50:19;4.18;;;4.07;;
17390;SDS011;8813;54.444;18.446;2023-09-19T06:52:47;3.13;;;3.10;;
17390;SDS011;8813;54.444;18.446;2023-09-19T06:55:16;4.15;;;3.92;;
17390;SDS011;8813;54.444;18.446;2023-09-19T06:57:45;2.78;;;2.78;;
17390;SDS011;8813;54.444;18.446;2023-09-19T07:00:13;2.78;;;2.78;;
17390;SDS011;8813;54.444;18.446;2023-09-19T07:02:43;2.70;;;2.70;;
17390;SDS011;8813;54.444;18.446;2023-09-19T07:05:10;2.58;;;2.58;;
17390;SDS011;8813;54.444;18.446;2023-09-19T07:07:38;2.60;;;2.60;;
17390;SDS011;8813;54.444;18.446;2023-09-19T07:10:05;2.75;;;2.75;;
17390;SDS011;8813;54.444;18.446;2023-09-19T07:12:37;2.50;;;2.50;;
17390;SDS011;8813;54.444;18.446;2023-09-19T07:15:04;2.80;;;2.80;;
17390;SDS011;8813;54.444;18.446;2023-09-19T07:17:32;2.30;;;2.30;;
17390;SDS011;8813;54.444;18.446;2023-09-19T07:19:59;2.30;;;2.30;;
17390;SDS011;8813;54.444;18.446;2023-09-19T07:22:26;4.05;;;3.95;;
17390;SDS011;8813;54.444;18.446;2023-09-19T07:24:53;2.95;;;2.85;;
17390;SDS011;8813;54.444;18.446;2023-09-19T07:27:20;2.60;;;2.60;;
17390;SDS011;8813;54.444;18.446;2023-09-19T07:29:48;2.00;;;2.00;;
17390;SDS011;8813;54.444;18.446;2023-09-19T07:32:15;2.40;;;2.40;;
17390;SDS011;8813;54.444;18.446;2023-09-19T07:34:43;3.55;;;3.25;;
17390;SDS011;8813;54.444;18.446;2023-09-19T07:37:10;2.17;;;2.17;;
17390;SDS011;8813;54.444;18.446;2023-09-19T07:39:38;2.33;;;2.33;;
17390;SDS011;8813;54.444;18.446;2023-09-19T07:42:06;2.80;;;2.70;;
17390;SDS011;8813;54.444;18.446;2023-09-19T07:44:34;4.60;;;4.05;;
17390;SDS011;8813;54.444;18.446;2023-09-19T07:47:03;2.20;;;2.20;;
17390;SDS011;8813;54.444;18.446;2023-09-19T07:49:30;3.65;;;3.45;;
17390;SDS011;8813;54.444;18.446;2023-09-19T07:51:57;2.40;;;2.30;;
17390;SDS011;8813;54.444;18.446;2023-09-19T07:54:24;1.90;;;1.90;;
17390;SDS011;8813;54.444;18.446;2023-09-19T07:56:51;2.15;;;2.08;;
17390;SDS011;8813;54.444;18.446;2023-09-19T07:59:19;2.28;;;2.17;;
17390;SDS011;8813;54.444;18.446;2023-09-19T08:01:46;1.80;;;1.80;;
17390;SDS011;8813;54.444;18.446;2023-09-19T08:04:15;2.42;;;2.33;;
17390;SDS011;8813;54.444;18.446;2023-09-19T08:06:44;1.73;;;1.73;;
17390;SDS011;8813;54.444;18.446;2023-09-19T08:09:17;1.63;;;1.63;;
17390;SDS011;8813;54.444;18.446;2023-09-19T08:11:49;1.95;;;1.85;;
17390;SDS011;8813;54.444;18.446;2023-09-19T08:14:16;7.53;;;4.05;;
17390;SDS011;8813;54.444;18.446;2023-09-19T08:16:43;1.50;;;1.50;;
17390;SDS011;8813;54.444;18.446;2023-09-19T08:19:10;1.45;;;1.42;;
17390;SDS011;8813;54.444;18.446;2023-09-19T08:21:38;1.55;;;1.55;;
17390;SDS011;8813;54.444;18.446;2023-09-19T08:24:05;1.23;;;1.23;;
17390;SDS011;8813;54.444;18.446;2023-09-19T08:26:34;1.77;;;1.77;;
17390;SDS011;8813;54.444;18.446;2023-09-19T08:29:03;1.33;;;1.33;;
17390;SDS011;8813;54.444;18.446;2023-09-19T08:31:32;1.40;;;1.40;;
17390;SDS011;8813;54.444;18.446;2023-09-19T08:33:59;1.38;;;1.38;;
17390;SDS011;8813;54.444;18.446;2023-09-19T08:36:26;1.20;;;1.20;;
17390;SDS011;8813;54.444;18.446;2023-09-19T08:38:54;1.30;;;1.30;;
17390;SDS011;8813;54.444;18.446;2023-09-19T08:41:21;1.55;;;1.55;;
17390;SDS011;8813;54.444;18.446;2023-09-19T08:43:48;1.10;;;1.10;;
17390;SDS011;8813;54.444;18.446;2023-09-19T08:46:20;1.10;;;1.10;;
17390;SDS011;8813;54.444;18.446;2023-09-19T08:48:54;1.75;;;1.20;;
17390;SDS011;8813;54.444;18.446;2023-09-19T08:51:26;1.48;;;1.48;;
17390;SDS011;8813;54.444;18.446;2023-09-19T08:53:58;1.10;;;1.10;;
17390;SDS011;8813;54.444;18.446;2023-09-19T08:56:29;1.52;;;1.52;;
17390;SDS011;8813;54.444;18.446;2023-09-19T08:58:59;1.35;;;1.35;;
17390;SDS011;8813;54.444;18.446;2023-09-19T09:01:27;1.30;;;1.30;;
17390;SDS011;8813;54.444;18.446;2023-09-19T09:03:55;1.10;;;1.10;;
17390;SDS011;8813;54.444;18.446;2023-09-19T09:06:23;1.10;;;1.10;;
17390;SDS011;8813;54.444;18.446;2023-09-19T09:08:52;1.67;;;1.67;;
17390;SDS011;8813;54.444;18.446;2023-09-19T09:11:21;1.38;;;1.38;;
17390;SDS011;8813;54.444;18.446;2023-09-19T09:13:50;1.33;;;1.33;;
17390;SDS011;8813;54.444;18.446;2023-09-19T09:16:17;4.60;;;1.38;;
17390;SDS011;8813;54.444;18.446;2023-09-19T09:18:44;1.10;;;1.10;;
17390;SDS011;8813;54.444;18.446;2023-09-19T09:21:12;0.98;;;0.98;;
17390;SDS011;8813;54.444;18.446;2023-09-19T09:23:41;1.10;;;1.10;;
17390;SDS011;8813;54.444;18.446;2023-09-19T09:26:08;1.20;;;1.20;;
17390;SDS011;8813;54.444;18.446;2023-09-19T09:28:38;1.33;;;1.33;;
17390;SDS011;8813;54.444;18.446;2023-09-19T09:31:21;1.20;;;1.20;;
17390;SDS011;8813;54.444;18.446;2023-09-19T09:33:52;0.90;;;0.90;;
17390;SDS011;8813;54.444;18.446;2023-09-19T09:36:33;1.00;;;1.00;;
17390;SDS011;8813;54.444;18.446;2023-09-19T09:39:02;1.38;;;1.38;;
17390;SDS011;8813;54.444;18.446;2023-09-19T09:41:43;1.95;;;1.30;;
17390;SDS011;8813;54.444;18.446;2023-09-19T09:44:16;0.90;;;0.90;;
17390;SDS011;8813;54.444;18.446;2023-09-19T09:46:44;1.15;;;1.15;;
17390;SDS011;8813;54.444;18.446;2023-09-19T09:49:24;2.33;;;2.22;;
17390;SDS011;8813;54.444;18.446;2023-09-19T09:51:58;1.40;;;1.40;;
17390;SDS011;8813;54.444;18.446;2023-09-19T09:54:26;1.10;;;1.10;;
17390;SDS011;8813;54.444;18.446;2023-09-19T09:57:00;0.80;;;0.80;;
17390;SDS011;8813;54.444;18.446;2023-09-19T09:59:49;0.65;;;0.65;;
17390;SDS011;8813;54.444;18.446;2023-09-19T10:02:18;1.10;;;1.10;;
17390;SDS011;8813;54.444;18.446;2023-09-19T10:04:49;0.80;;;0.80;;
17390;SDS011;8813;54.444;18.446;2023-09-19T10:07:39;0.68;;;0.68;;
17390;SDS011;8813;54.444;18.446;2023-09-19T10:10:14;0.70;;;0.70;;
17390;SDS011;8813;54.444;18.446;2023-09-19T10:12:47;1.25;;;1.25;;
17390;SDS011;8813;54.444;18.446;2023-09-19T10:18:01;0.90;;;0.90;;
17390;SDS011;8813;54.444;18.446;2023-09-19T10:20:31;1.05;;;1.05;;
17390;SDS011;8813;54.444;18.446;2023-09-19T10:23:04;1.23;;;1.23;;
17390;SDS011;8813;54.444;18.446;2023-09-19T10:25:36;0.80;;;0.80;;
17390;SDS011;8813;54.444;18.446;2023-09-19T10:28:05;0.80;;;0.80;;
17390;SDS011;8813;54.444;18.446;2023-09-19T10:30:37;0.98;;;0.98;;
17390;SDS011;8813;54.444;18.446;2023-09-19T10:33:09;1.27;;;1.27;;
17390;SDS011;8813;54.444;18.446;2023-09-19T10:35:37;0.90;;;0.90;;
17390;SDS011;8813;54.444;18.446;2023-09-19T10:38:06;0.98;;;0.98;;
17390;SDS011;8813;54.444;18.446;2023-09-19T10:40:34;0.80;;;0.80;;
17390;SDS011;8813;54.444;18.446;2023-09-19T10:43:02;1.40;;;1.40;;
17390;SDS011;8813;54.444;18.446;2023-09-19T10:45:30;0.90;;;0.90;;
17390;SDS011;8813;54.444;18.446;2023-09-19T10:48:00;1.17;;;1.17;;
17390;SDS011;8813;54.444;18.446;2023-09-19T10:50:28;1.08;;;1.08;;
17390;SDS011;8813;54.444;18.446;2023-09-19T10:52:59;1.45;;;1.10;;
17390;SDS011;8813;54.444;18.446;2023-09-19T10:55:30;1.35;;;1.35;;
17390;SDS011;8813;54.444;18.446;2023-09-19T10:57:58;1.02;;;1.02;;
17390;SDS011;8813;54.444;18.446;2023-09-19T11:00:53;1.20;;;1.20;;
17390;SDS011;8813;54.444;18.446;2023-09-19T11:03:22;0.90;;;0.90;;
17390;SDS011;8813;54.444;18.446;2023-09-19T11:08:53;1.00;;;1.00;;
17390;SDS011;8813;54.444;18.446;2023-09-19T11:14:14;1.10;;;1.10;;
17390;SDS011;8813;54.444;18.446;2023-09-19T11:25:47;1.35;;;1.33;;
17390;SDS011;8813;54.444;18.446;2023-09-19T11:28:29;1.00;;;1.00;;
17390;SDS011;8813;54.444;18.446;2023-09-19T11:40:37;0.70;;;0.70;;
17390;SDS011;8813;54.444;18.446;2023-09-19T11:46:08;0.80;;;0.80;;
17390;SDS011;8813;54.444;18.446;2023-09-19T11:48:37;0.88;;;0.88;;
17390;SDS011;8813;54.444;18.446;2023-09-19T11:51:13;0.90;;;0.90;;
17390;SDS011;8813;54.444;18.446;2023-09-19T11:53:49;1.05;;;1.05;;
17390;SDS011;8813;54.444;18.446;2023-09-19T11:56:18;0.90;;;0.90;;
17390;SDS011;8813;54.444;18.446;2023-09-19T11:58:48;0.90;;;0.90;;
17390;SDS011;8813;54.444;18.446;2023-09-19T12:01:21;3.63;;;3.42;;
17390;SDS011;8813;54.444;18.446;2023-09-19T12:03:54;0.80;;;0.80;;
17390;SDS011;8813;54.444;18.446;2023-09-19T12:06:23;0.70;;;0.70;;
17390;SDS011;8813;54.444;18.446;2023-09-19T12:08:50;0.80;;;0.80;;
17390;SDS011;8813;54.444;18.446;2023-09-19T12:11:21;6.75;;;3.47;;
17390;SDS011;8813;54.444;18.446;2023-09-19T12:13:49;1.13;;;1.13;;
17390;SDS011;8813;54.444;18.446;2023-09-19T12:16:19;1.60;;;1.02;;
17390;SDS011;8813;54.444;18.446;2023-09-19T12:18:48;6.57;;;2.88;;
17390;SDS011;8813;54.444;18.446;2023-09-19T12:24:11;1.23;;;1.23;;
17390;SDS011;8813;54.444;18.446;2023-09-19T12:26:43;0.80;;;0.80;;
17390;SDS011;8813;54.444;18.446;2023-09-19T12:29:14;0.70;;;0.70;;
17390;SDS011;8813;54.444;18.446;2023-09-19T12:31:47;0.90;;;0.90;;
17390;SDS011;8813;54.444;18.446;2023-09-19T12:34:18;0.88;;;0.88;;
17390;SDS011;8813;54.444;18.446;2023-09-19T12:36:46;0.90;;;0.90;;
17390;SDS011;8813;54.444;18.446;2023-09-19T12:39:22;1.17;;;1.17;;
17390;SDS011;8813;54.444;18.446;2023-09-19T12:41:52;1.10;;;1.10;;
17390;SDS011;8813;54.444;18.446;2023-09-19T12:44:19;0.70;;;0.70;;
17390;SDS011;8813;54.444;18.446;2023-09-19T12:46:50;1.10;;;1.10;;
17390;SDS011;8813;54.444;18.446;2023-09-19T12:49:19;21.92;;;2.25;;
17390;SDS011;8813;54.444;18.446;2023-09-19T12:51:48;0.90;;;0.90;;
17390;SDS011;8813;54.444;18.446;2023-09-19T12:54:16;0.60;;;0.60;;
17390;SDS011;8813;54.444;18.446;2023-09-19T12:56:43;0.80;;;0.80;;
17390;SDS011;8813;54.444;18.446;2023-09-19T12:59:14;0.80;;;0.80;;
17390;SDS011;8813;54.444;18.446;2023-09-19T13:01:42;0.93;;;0.93;;
17390;SDS011;8813;54.444;18.446;2023-09-19T13:04:12;0.70;;;0.70;;
17390;SDS011;8813;54.444;18.446;2023-09-19T13:06:44;0.80;;;0.80;;
17390;SDS011;8813;54.444;18.446;2023-09-19T13:09:13;0.80;;;0.80;;
17390;SDS011;8813;54.444;18.446;2023-09-19T13:11:41;0.65;;;0.65;;
17390;SDS011;8813;54.444;18.446;2023-09-19T13:14:14;0.80;;;0.80;;
17390;SDS011;8813;54.444;18.446;2023-09-19T13:16:56;0.80;;;0.80;;
17390;SDS011;8813;54.444;18.446;2023-09-19T13:19:38;0.90;;;0.90;;
17390;SDS011;8813;54.444;18.446;2023-09-19T13:25:05;1.00;;;1.00;;
17390;SDS011;8813;54.444;18.446;2023-09-19T13:27:33;0.70;;;0.70;;
17390;SDS011;8813;54.444;18.446;2023-09-19T13:30:01;1.20;;;1.20;;
17390;SDS011;8813;54.444;18.446;2023-09-19T13:32:31;0.90;;;0.90;;
17390;SDS011;8813;54.444;18.446;2023-09-19T13:34:58;0.80;;;0.80;;
17390;SDS011;8813;54.444;18.446;2023-09-19T13:37:25;0.80;;;0.80;;
17390;SDS011;8813;54.444;18.446;2023-09-19T13:39:52;0.80;;;0.80;;
17390;SDS011;8813;54.444;18.446;2023-09-19T13:42:19;0.80;;;0.80;;
17390;SDS011;8813;54.444;18.446;2023-09-19T13:44:47;0.85;;;0.85;;
17390;SDS011;8813;54.444;18.446;2023-09-19T13:47:16;1.00;;;1.00;;
17390;SDS011;8813;54.444;18.446;2023-09-19T13:49:49;1.02;;;1.02;;
17390;SDS011;8813;54.444;18.446;2023-09-19T13:52:17;1.35;;;1.35;;
17390;SDS011;8813;54.444;18.446;2023-09-19T13:54:44;0.60;;;0.60;;
17390;SDS011;8813;54.444;18.446;2023-09-19T13:57:11;0.80;;;0.80;;
17390;SDS011;8813;54.444;18.446;2023-09-19T13:59:39;0.70;;;0.70;;
17390;SDS011;8813;54.444;18.446;2023-09-19T14:02:06;0.70;;;0.70;;
17390;SDS011;8813;54.444;18.446;2023-09-19T14:04:34;0.75;;;0.75;;
17390;SDS011;8813;54.444;18.446;2023-09-19T14:07:01;0.90;;;0.90;;
17390;SDS011;8813;54.444;18.446;2023-09-19T14:09:28;2.70;;;0.73;;
17390;SDS011;8813;54.444;18.446;2023-09-19T14:11:55;1.33;;;1.33;;
17390;SDS011;8813;54.444;18.446;2023-09-19T14:14:22;0.60;;;0.60;;
17390;SDS011;8813;54.444;18.446;2023-09-19T14:16:49;0.70;;;0.70;;
17390;SDS011;8813;54.444;18.446;2023-09-19T14:19:17;1.30;;;1.13;;
17390;SDS011;8813;54.444;18.446;2023-09-19T14:21:45;0.80;;;0.80;;
17390;SDS011;8813;54.444;18.446;2023-09-19T14:24:16;1.52;;;1.30;;
17390;SDS011;8813;54.444;18.446;2023-09-19T14:26:43;2.47;;;0.70;;
17390;SDS011;8813;54.444;18.446;2023-09-19T14:29:11;0.82;;;0.82;;
17390;SDS011;8813;54.444;18.446;2023-09-19T14:31:39;0.80;;;0.80;;
17390;SDS011;8813;54.444;18.446;2023-09-19T14:34:06;0.90;;;0.90;;
17390;SDS011;8813;54.444;18.446;2023-09-19T14:36:35;0.70;;;0.70;;
17390;SDS011;8813;54.444;18.446;2023-09-19T14:39:03;1.52;;;1.48;;
17390;SDS011;8813;54.444;18.446;2023-09-19T14:41:30;0.75;;;0.75;;
17390;SDS011;8813;54.444;18.446;2023-09-19T14:43:57;0.80;;;0.80;;
17390;SDS011;8813;54.444;18.446;2023-09-19T14:46:24;0.73;;;0.73;;
17390;SDS011;8813;54.444;18.446;2023-09-19T14:48:51;0.60;;;0.60;;
17390;SDS011;8813;54.444;18.446;2023-09-19T14:51:18;1.35;;;1.05;;
17390;SDS011;8813;54.444;18.446;2023-09-19T14:53:46;0.60;;;0.60;;
17390;SDS011;8813;54.444;18.446;2023-09-19T14:56:15;0.95;;;0.95;;
17390;SDS011;8813;54.444;18.446;2023-09-19T14:58:45;2.30;;;1.15;;
17390;SDS011;8813;54.444;18.446;2023-09-19T15:01:13;5.10;;;0.88;;
17390;SDS011;8813;54.444;18.446;2023-09-19T15:03:41;7.22;;;0.90;;
17390;SDS011;8813;54.444;18.446;2023-09-19T15:06:09;0.70;;;0.70;;
17390;SDS011;8813;54.444;18.446;2023-09-19T15:08:39;0.60;;;0.60;;
17390;SDS011;8813;54.444;18.446;2023-09-19T15:11:11;1.15;;;1.10;;
17390;SDS011;8813;54.444;18.446;2023-09-19T15:13:40;0.68;;;0.68;;
17390;SDS011;8813;54.444;18.446;2023-09-19T15:16:08;0.85;;;0.85;;
17390;SDS011;8813;54.444;18.446;2023-09-19T15:18:35;0.80;;;0.80;;
17390;SDS011;8813;54.444;18.446;2023-09-19T15:21:04;1.00;;;1.00;;
17390;SDS011;8813;54.444;18.446;2023-09-19T15:23:32;0.70;;;0.70;;
17390;SDS011;8813;54.444;18.446;2023-09-19T15:25:59;0.73;;;0.73;;
17390;SDS011;8813;54.444;18.446;2023-09-19T15:28:26;0.70;;;0.70;;
17390;SDS011;8813;54.444;18.446;2023-09-19T15:30:58;0.70;;;0.70;;
17390;SDS011;8813;54.444;18.446;2023-09-19T15:33:26;0.70;;;0.70;;